sensor_id;sensor_type;location;lat;lon;timestamp;P1;durP1;ratioP1;P2;durP2;ratioP2
77222;SDS011;66218;48.928;9.140;2023-08-01T00:01:03;3.67;;;0.95;;
77222;SDS011;66218;48.928;9.140;2023-08-01T00:03:28;3.07;;;1.10;;
77222;SDS011;66218;48.928;9.140;2023-08-01T00:05:54;5.97;;;1.57;;
77222;SDS011;66218;48.928;9.140;2023-08-01T00:08:20;2.97;;;1.42;;
77222;SDS011;66218;48.928;9.140;2023-08-01T00:10:45;4.40;;;1.45;;
77222;SDS011;66218;48.928;9.140;2023-08-01T00:13:10;4.33;;;1.47;;
77222;SDS011;66218;48.928;9.140;2023-08-01T00:15:35;3.92;;;1.73;;
77222;SDS011;66218;48.928;9.140;2023-08-01T00:18:01;3.80;;;1.42;;
77222;SDS011;66218;48.928;9.140;2023-08-01T00:20:26;5.00;;;0.90;;
77222;SDS011;66218;48.928;9.140;2023-08-01T00:22:51;4.53;;;1.63;;
77222;SDS011;66218;48.928;9.140;2023-08-01T00:25:17;5.53;;;1.47;;
77222;SDS011;66218;48.928;9.140;2023-08-01T00:27:42;4.88;;;1.75;;
77222;SDS011;66218;48.928;9.140;2023-08-01T00:30:07;4.60;;;1.60;;
77222;SDS011;66218;48.928;9.140;2023-08-01T00:32:33;3.67;;;1.55;;
77222;SDS011;66218;48.928;9.140;2023-08-01T00:34:58;2.35;;;1.27;;
77222;SDS011;66218;48.928;9.140;2023-08-01T00:37:23;6.03;;;1.87;;
77222;SDS011;66218;48.928;9.140;2023-08-01T00:39:49;4.43;;;1.70;;
77222;SDS011;66218;48.928;9.140;2023-08-01T00:42:14;3.70;;;1.75;;
77222;SDS011;66218;48.928;9.140;2023-08-01T00:44:39;3.85;;;1.45;;
77222;SDS011;66218;48.928;9.140;2023-08-01T00:47:05;6.53;;;1.60;;
77222;SDS011;66218;48.928;9.140;2023-08-01T00:49:30;3.60;;;1.53;;
77222;SDS011;66218;48.928;9.140;2023-08-01T00:51:55;4.80;;;1.48;;
77222;SDS011;66218;48.928;9.140;2023-08-01T00:54:20;4.93;;;2.00;;
77222;SDS011;66218;48.928;9.140;2023-08-01T00:56:46;2.90;;;1.38;;
77222;SDS011;66218;48.928;9.140;2023-08-01T00:59:12;4.87;;;1.70;;
77222;SDS011;66218;48.928;9.140;2023-08-01T01:01:37;4.03;;;1.40;;
77222;SDS011;66218;48.928;9.140;2023-08-01T01:04:03;4.20;;;1.10;;
77222;SDS011;66218;48.928;9.140;2023-08-01T01:06:32;3.70;;;1.50;;
77222;SDS011;66218;48.928;9.140;2023-08-01T01:08:57;3.15;;;1.67;;
77222;SDS011;66218;48.928;9.140;2023-08-01T01:11:22;4.70;;;1.50;;
77222;SDS011;66218;48.928;9.140;2023-08-01T01:13:47;4.20;;;1.43;;
77222;SDS011;66218;48.928;9.140;2023-08-01T01:16:12;2.87;;;1.30;;
77222;SDS011;66218;48.928;9.140;2023-08-01T01:18:38;3.10;;;1.33;;
77222;SDS011;66218;48.928;9.140;2023-08-01T01:21:03;3.80;;;1.43;;
77222;SDS011;66218;48.928;9.140;2023-08-01T01:23:29;3.20;;;1.30;;
77222;SDS011;66218;48.928;9.140;2023-08-01T01:25:55;4.07;;;1.45;;
77222;SDS011;66218;48.928;9.140;2023-08-01T01:28:21;4.60;;;1.45;;
77222;SDS011;66218;48.928;9.140;2023-08-01T01:30:47;2.83;;;1.02;;
77222;SDS011;66218;48.928;9.140;2023-08-01T01:33:13;4.15;;;1.08;;
77222;SDS011;66218;48.928;9.140;2023-08-01T01:35:39;2.63;;;1.60;;
77222;SDS011;66218;48.928;9.140;2023-08-01T01:38:05;3.65;;;1.50;;
77222;SDS011;66218;48.928;9.140;2023-08-01T01:40:31;5.23;;;1.83;;
77222;SDS011;66218;48.928;9.140;2023-08-01T01:42:56;4.68;;;1.73;;
77222;SDS011;66218;48.928;9.140;2023-08-01T01:45:21;4.03;;;1.58;;
77222;SDS011;66218;48.928;9.140;2023-08-01T01:47:46;4.03;;;1.77;;
77222;SDS011;66218;48.928;9.140;2023-08-01T01:50:12;5.10;;;1.53;;
77222;SDS011;66218;48.928;9.140;2023-08-01T01:52:37;5.90;;;1.40;;
77222;SDS011;66218;48.928;9.140;2023-08-01T01:55:02;6.33;;;1.70;;
77222;SDS011;66218;48.928;9.140;2023-08-01T01:57:27;4.10;;;1.60;;
77222;SDS011;66218;48.928;9.140;2023-08-01T01:59:53;3.67;;;1.70;;
77222;SDS011;66218;48.928;9.140;2023-08-01T02:02:18;4.27;;;1.50;;
77222;SDS011;66218;48.928;9.140;2023-08-01T02:04:45;3.83;;;1.60;;
77222;SDS011;66218;48.928;9.140;2023-08-01T02:07:11;7.05;;;1.52;;
77222;SDS011;66218;48.928;9.140;2023-08-01T02:09:36;7.03;;;1.83;;
77222;SDS011;66218;48.928;9.140;2023-08-01T02:12:01;5.27;;;1.70;;
77222;SDS011;66218;48.928;9.140;2023-08-01T02:14:26;4.15;;;1.73;;
77222;SDS011;66218;48.928;9.140;2023-08-01T02:16:51;4.90;;;1.70;;
77222;SDS011;66218;48.928;9.140;2023-08-01T02:19:17;5.77;;;1.63;;
77222;SDS011;66218;48.928;9.140;2023-08-01T02:21:42;3.77;;;2.00;;
77222;SDS011;66218;48.928;9.140;2023-08-01T02:24:07;5.80;;;1.37;;
77222;SDS011;66218;48.928;9.140;2023-08-01T02:26:32;4.07;;;1.67;;
77222;SDS011;66218;48.928;9.140;2023-08-01T02:28:57;5.77;;;1.50;;
77222;SDS011;66218;48.928;9.140;2023-08-01T02:31:23;4.13;;;1.67;;
77222;SDS011;66218;48.928;9.140;2023-08-01T02:33:48;2.40;;;0.93;;
77222;SDS011;66218;48.928;9.140;2023-08-01T02:36:13;3.27;;;1.43;;
77222;SDS011;66218;48.928;9.140;2023-08-01T02:38:38;3.90;;;1.50;;
77222;SDS011;66218;48.928;9.140;2023-08-01T02:41:03;5.13;;;2.10;;
77222;SDS011;66218;48.928;9.140;2023-08-01T02:43:29;3.50;;;1.70;;
77222;SDS011;66218;48.928;9.140;2023-08-01T02:45:54;4.97;;;1.90;;
77222;SDS011;66218;48.928;9.140;2023-08-01T02:48:19;6.60;;;1.60;;
77222;SDS011;66218;48.928;9.140;2023-08-01T02:50:45;6.60;;;2.03;;
77222;SDS011;66218;48.928;9.140;2023-08-01T02:53:10;4.38;;;1.50;;
77222;SDS011;66218;48.928;9.140;2023-08-01T02:55:35;4.30;;;1.60;;
77222;SDS011;66218;48.928;9.140;2023-08-01T02:58:00;7.90;;;1.83;;
77222;SDS011;66218;48.928;9.140;2023-08-01T03:00:26;4.03;;;2.03;;
77222;SDS011;66218;48.928;9.140;2023-08-01T03:02:51;4.83;;;1.47;;
77222;SDS011;66218;48.928;9.140;2023-08-01T03:05:16;5.07;;;1.67;;
77222;SDS011;66218;48.928;9.140;2023-08-01T03:07:42;4.90;;;1.70;;
77222;SDS011;66218;48.928;9.140;2023-08-01T03:10:07;5.60;;;1.75;;
77222;SDS011;66218;48.928;9.140;2023-08-01T03:12:32;3.85;;;1.77;;
77222;SDS011;66218;48.928;9.140;2023-08-01T03:14:58;3.58;;;1.65;;
77222;SDS011;66218;48.928;9.140;2023-08-01T03:17:23;5.13;;;1.67;;
77222;SDS011;66218;48.928;9.140;2023-08-01T03:19:48;4.68;;;1.75;;
77222;SDS011;66218;48.928;9.140;2023-08-01T03:22:14;7.07;;;2.05;;
77222;SDS011;66218;48.928;9.140;2023-08-01T03:24:39;2.57;;;1.47;;
77222;SDS011;66218;48.928;9.140;2023-08-01T03:27:04;4.53;;;1.73;;
77222;SDS011;66218;48.928;9.140;2023-08-01T03:29:29;5.03;;;1.95;;
77222;SDS011;66218;48.928;9.140;2023-08-01T03:31:55;3.27;;;1.50;;
77222;SDS011;66218;48.928;9.140;2023-08-01T03:34:20;2.80;;;1.77;;
77222;SDS011;66218;48.928;9.140;2023-08-01T03:36:45;6.20;;;2.00;;
77222;SDS011;66218;48.928;9.140;2023-08-01T03:39:10;4.80;;;1.87;;
77222;SDS011;66218;48.928;9.140;2023-08-01T03:41:35;4.80;;;1.90;;
77222;SDS011;66218;48.928;9.140;2023-08-01T03:44:01;5.85;;;1.77;;
77222;SDS011;66218;48.928;9.140;2023-08-01T03:46:27;4.97;;;2.17;;
77222;SDS011;66218;48.928;9.140;2023-08-01T03:48:52;7.00;;;1.73;;
77222;SDS011;66218;48.928;9.140;2023-08-01T03:51:17;5.90;;;2.35;;
77222;SDS011;66218;48.928;9.140;2023-08-01T03:53:44;3.33;;;1.88;;
77222;SDS011;66218;48.928;9.140;2023-08-01T03:58:35;5.50;;;1.70;;
77222;SDS011;66218;48.928;9.140;2023-08-01T04:01:00;3.90;;;1.57;;
77222;SDS011;66218;48.928;9.140;2023-08-01T04:03:25;5.70;;;1.87;;
77222;SDS011;66218;48.928;9.140;2023-08-01T04:05:51;3.78;;;1.65;;
77222;SDS011;66218;48.928;9.140;2023-08-01T04:08:16;5.63;;;1.73;;
77222;SDS011;66218;48.928;9.140;2023-08-01T04:10:42;4.17;;;1.20;;
77222;SDS011;66218;48.928;9.140;2023-08-01T04:13:07;5.63;;;2.00;;
77222;SDS011;66218;48.928;9.140;2023-08-01T04:15:32;5.85;;;1.50;;
77222;SDS011;66218;48.928;9.140;2023-08-01T04:17:58;6.30;;;1.98;;
77222;SDS011;66218;48.928;9.140;2023-08-01T04:20:23;5.70;;;1.33;;
77222;SDS011;66218;48.928;9.140;2023-08-01T04:22:48;4.47;;;1.63;;
77222;SDS011;66218;48.928;9.140;2023-08-01T04:25:13;3.93;;;1.50;;
77222;SDS011;66218;48.928;9.140;2023-08-01T04:27:38;5.00;;;1.33;;
77222;SDS011;66218;48.928;9.140;2023-08-01T04:30:04;2.47;;;0.87;;
77222;SDS011;66218;48.928;9.140;2023-08-01T04:32:29;3.25;;;1.20;;
77222;SDS011;66218;48.928;9.140;2023-08-01T04:34:54;2.10;;;0.83;;
77222;SDS011;66218;48.928;9.140;2023-08-01T04:37:20;2.20;;;0.90;;
77222;SDS011;66218;48.928;9.140;2023-08-01T04:39:47;2.53;;;1.20;;
77222;SDS011;66218;48.928;9.140;2023-08-01T04:42:12;2.90;;;1.27;;
77222;SDS011;66218;48.928;9.140;2023-08-01T04:44:37;3.20;;;1.10;;
77222;SDS011;66218;48.928;9.140;2023-08-01T04:47:03;2.40;;;1.00;;
77222;SDS011;66218;48.928;9.140;2023-08-01T04:49:28;4.82;;;1.58;;
77222;SDS011;66218;48.928;9.140;2023-08-01T04:51:53;3.23;;;1.40;;
77222;SDS011;66218;48.928;9.140;2023-08-01T04:54:19;3.83;;;1.05;;
77222;SDS011;66218;48.928;9.140;2023-08-01T04:56:44;4.27;;;1.53;;
77222;SDS011;66218;48.928;9.140;2023-08-01T04:59:09;1.97;;;1.00;;
77222;SDS011;66218;48.928;9.140;2023-08-01T05:01:34;3.43;;;1.27;;
77222;SDS011;66218;48.928;9.140;2023-08-01T05:03:59;2.53;;;1.20;;
77222;SDS011;66218;48.928;9.140;2023-08-01T05:06:25;3.70;;;1.50;;
77222;SDS011;66218;48.928;9.140;2023-08-01T05:08:50;3.93;;;1.23;;
77222;SDS011;66218;48.928;9.140;2023-08-01T05:11:15;2.63;;;1.02;;
77222;SDS011;66218;48.928;9.140;2023-08-01T05:13:40;3.23;;;1.47;;
77222;SDS011;66218;48.928;9.140;2023-08-01T05:16:06;7.10;;;1.60;;
77222;SDS011;66218;48.928;9.140;2023-08-01T05:18:31;3.43;;;0.90;;
77222;SDS011;66218;48.928;9.140;2023-08-01T05:20:56;3.00;;;1.10;;
77222;SDS011;66218;48.928;9.140;2023-08-01T05:23:21;3.20;;;1.03;;
77222;SDS011;66218;48.928;9.140;2023-08-01T05:25:46;5.17;;;1.40;;
77222;SDS011;66218;48.928;9.140;2023-08-01T05:28:12;3.80;;;0.88;;
77222;SDS011;66218;48.928;9.140;2023-08-01T05:30:37;2.97;;;1.00;;
77222;SDS011;66218;48.928;9.140;2023-08-01T05:33:02;4.40;;;1.00;;
77222;SDS011;66218;48.928;9.140;2023-08-01T05:35:27;2.45;;;1.08;;
77222;SDS011;66218;48.928;9.140;2023-08-01T05:37:53;3.03;;;1.23;;
77222;SDS011;66218;48.928;9.140;2023-08-01T05:40:18;2.67;;;0.63;;
77222;SDS011;66218;48.928;9.140;2023-08-01T05:42:43;3.83;;;1.20;;
77222;SDS011;66218;48.928;9.140;2023-08-01T05:45:08;1.87;;;1.20;;
77222;SDS011;66218;48.928;9.140;2023-08-01T05:47:34;5.63;;;1.33;;
77222;SDS011;66218;48.928;9.140;2023-08-01T05:50:00;3.88;;;0.77;;
77222;SDS011;66218;48.928;9.140;2023-08-01T05:52:26;3.40;;;1.07;;
77222;SDS011;66218;48.928;9.140;2023-08-01T05:54:51;2.40;;;0.97;;
77222;SDS011;66218;48.928;9.140;2023-08-01T05:57:16;1.73;;;0.90;;
77222;SDS011;66218;48.928;9.140;2023-08-01T05:59:41;4.78;;;1.77;;
77222;SDS011;66218;48.928;9.140;2023-08-01T06:02:06;4.33;;;0.97;;
77222;SDS011;66218;48.928;9.140;2023-08-01T06:04:32;2.50;;;1.00;;
77222;SDS011;66218;48.928;9.140;2023-08-01T06:06:57;3.90;;;1.17;;
77222;SDS011;66218;48.928;9.140;2023-08-01T06:09:22;3.23;;;1.10;;
77222;SDS011;66218;48.928;9.140;2023-08-01T06:11:47;3.13;;;1.10;;
77222;SDS011;66218;48.928;9.140;2023-08-01T06:14:12;4.40;;;1.30;;
77222;SDS011;66218;48.928;9.140;2023-08-01T06:16:38;2.93;;;1.33;;
77222;SDS011;66218;48.928;9.140;2023-08-01T06:19:03;3.87;;;1.13;;
77222;SDS011;66218;48.928;9.140;2023-08-01T06:21:29;4.28;;;1.88;;
77222;SDS011;66218;48.928;9.140;2023-08-01T06:23:54;8.38;;;1.77;;
77222;SDS011;66218;48.928;9.140;2023-08-01T06:26:19;2.87;;;1.47;;
77222;SDS011;66218;48.928;9.140;2023-08-01T06:28:44;3.07;;;1.43;;
77222;SDS011;66218;48.928;9.140;2023-08-01T06:31:09;3.93;;;1.57;;
77222;SDS011;66218;48.928;9.140;2023-08-01T06:33:35;3.53;;;2.17;;
77222;SDS011;66218;48.928;9.140;2023-08-01T06:36:00;5.20;;;2.03;;
77222;SDS011;66218;48.928;9.140;2023-08-01T06:38:25;5.87;;;1.70;;
77222;SDS011;66218;48.928;9.140;2023-08-01T06:40:50;4.47;;;1.63;;
77222;SDS011;66218;48.928;9.140;2023-08-01T06:43:15;2.77;;;0.97;;
77222;SDS011;66218;48.928;9.140;2023-08-01T06:45:41;3.47;;;1.53;;
77222;SDS011;66218;48.928;9.140;2023-08-01T06:48:06;4.10;;;1.55;;
77222;SDS011;66218;48.928;9.140;2023-08-01T06:50:31;6.27;;;2.23;;
77222;SDS011;66218;48.928;9.140;2023-08-01T06:52:56;5.10;;;2.27;;
77222;SDS011;66218;48.928;9.140;2023-08-01T06:55:21;4.43;;;1.57;;
77222;SDS011;66218;48.928;9.140;2023-08-01T06:57:47;4.13;;;1.53;;
77222;SDS011;66218;48.928;9.140;2023-08-01T07:00:12;5.43;;;2.07;;
77222;SDS011;66218;48.928;9.140;2023-08-01T07:02:37;8.52;;;2.35;;
77222;SDS011;66218;48.928;9.140;2023-08-01T07:05:02;4.27;;;1.50;;
77222;SDS011;66218;48.928;9.140;2023-08-01T07:07:29;4.07;;;2.00;;
77222;SDS011;66218;48.928;9.140;2023-08-01T07:09:54;4.50;;;1.87;;
77222;SDS011;66218;48.928;9.140;2023-08-01T07:12:20;5.77;;;2.03;;
77222;SDS011;66218;48.928;9.140;2023-08-01T07:14:45;5.40;;;2.03;;
77222;SDS011;66218;48.928;9.140;2023-08-01T07:17:10;4.50;;;1.43;;
77222;SDS011;66218;48.928;9.140;2023-08-01T07:19:35;3.43;;;1.43;;
77222;SDS011;66218;48.928;9.140;2023-08-01T07:22:00;5.33;;;2.10;;
77222;SDS011;66218;48.928;9.140;2023-08-01T07:24:26;3.97;;;1.63;;
77222;SDS011;66218;48.928;9.140;2023-08-01T07:26:51;6.50;;;2.60;;
77222;SDS011;66218;48.928;9.140;2023-08-01T07:29:16;4.60;;;1.83;;
77222;SDS011;66218;48.928;9.140;2023-08-01T07:31:41;5.60;;;2.03;;
77222;SDS011;66218;48.928;9.140;2023-08-01T07:34:07;5.82;;;2.33;;
77222;SDS011;66218;48.928;9.140;2023-08-01T07:36:33;4.35;;;2.03;;
77222;SDS011;66218;48.928;9.140;2023-08-01T07:38:58;2.80;;;1.53;;
77222;SDS011;66218;48.928;9.140;2023-08-01T07:41:23;4.93;;;1.87;;
77222;SDS011;66218;48.928;9.140;2023-08-01T07:43:48;5.53;;;1.97;;
77222;SDS011;66218;48.928;9.140;2023-08-01T07:46:13;7.47;;;2.15;;
77222;SDS011;66218;48.928;9.140;2023-08-01T07:48:39;10.98;;;2.63;;
77222;SDS011;66218;48.928;9.140;2023-08-01T07:51:04;6.45;;;1.63;;
77222;SDS011;66218;48.928;9.140;2023-08-01T07:55:55;3.42;;;1.42;;
77222;SDS011;66218;48.928;9.140;2023-08-01T07:58:21;5.30;;;1.90;;
77222;SDS011;66218;48.928;9.140;2023-08-01T08:00:46;5.23;;;2.10;;
77222;SDS011;66218;48.928;9.140;2023-08-01T08:03:11;3.63;;;1.60;;
77222;SDS011;66218;48.928;9.140;2023-08-01T08:05:36;8.13;;;1.50;;
77222;SDS011;66218;48.928;9.140;2023-08-01T08:08:03;6.38;;;2.08;;
77222;SDS011;66218;48.928;9.140;2023-08-01T08:10:28;4.35;;;1.65;;
77222;SDS011;66218;48.928;9.140;2023-08-01T08:12:54;3.30;;;1.50;;
77222;SDS011;66218;48.928;9.140;2023-08-01T08:15:19;2.10;;;1.30;;
77222;SDS011;66218;48.928;9.140;2023-08-01T08:17:44;3.45;;;1.40;;
77222;SDS011;66218;48.928;9.140;2023-08-01T08:20:10;2.63;;;1.00;;
77222;SDS011;66218;48.928;9.140;2023-08-01T08:22:35;5.10;;;1.33;;
77222;SDS011;66218;48.928;9.140;2023-08-01T08:25:00;3.43;;;1.30;;
77222;SDS011;66218;48.928;9.140;2023-08-01T08:27:25;2.95;;;1.23;;
77222;SDS011;66218;48.928;9.140;2023-08-01T08:29:51;2.90;;;1.00;;
77222;SDS011;66218;48.928;9.140;2023-08-01T08:32:16;2.42;;;0.73;;
77222;SDS011;66218;48.928;9.140;2023-08-01T08:34:42;2.20;;;0.77;;
77222;SDS011;66218;48.928;9.140;2023-08-01T08:37:07;1.50;;;0.67;;
77222;SDS011;66218;48.928;9.140;2023-08-01T08:39:32;3.67;;;1.10;;
77222;SDS011;66218;48.928;9.140;2023-08-01T08:41:57;2.07;;;0.90;;
77222;SDS011;66218;48.928;9.140;2023-08-01T08:44:23;2.30;;;0.70;;
77222;SDS011;66218;48.928;9.140;2023-08-01T08:46:53;2.38;;;0.82;;
77222;SDS011;66218;48.928;9.140;2023-08-01T08:49:19;2.85;;;0.88;;
77222;SDS011;66218;48.928;9.140;2023-08-01T08:51:45;3.70;;;0.80;;
77222;SDS011;66218;48.928;9.140;2023-08-01T08:54:10;0.45;;;0.40;;
77222;SDS011;66218;48.928;9.140;2023-08-01T08:56:36;1.33;;;0.50;;
77222;SDS011;66218;48.928;9.140;2023-08-01T08:59:03;1.77;;;0.50;;
77222;SDS011;66218;48.928;9.140;2023-08-01T09:01:28;2.75;;;0.65;;
77222;SDS011;66218;48.928;9.140;2023-08-01T09:03:53;2.72;;;0.70;;
77222;SDS011;66218;48.928;9.140;2023-08-01T09:06:21;3.63;;;1.23;;
77222;SDS011;66218;48.928;9.140;2023-08-01T09:08:55;1.40;;;0.70;;
77222;SDS011;66218;48.928;9.140;2023-08-01T09:11:21;2.38;;;1.10;;
77222;SDS011;66218;48.928;9.140;2023-08-01T09:13:47;2.93;;;0.90;;
77222;SDS011;66218;48.928;9.140;2023-08-01T09:16:12;1.10;;;0.80;;
77222;SDS011;66218;48.928;9.140;2023-08-01T09:18:50;1.52;;;0.80;;
77222;SDS011;66218;48.928;9.140;2023-08-01T09:21:22;2.22;;;0.80;;
77222;SDS011;66218;48.928;9.140;2023-08-01T09:23:47;2.90;;;0.57;;
77222;SDS011;66218;48.928;9.140;2023-08-01T09:26:13;3.72;;;0.68;;
77222;SDS011;66218;48.928;9.140;2023-08-01T09:28:39;1.15;;;0.50;;
77222;SDS011;66218;48.928;9.140;2023-08-01T09:31:04;1.97;;;0.70;;
77222;SDS011;66218;48.928;9.140;2023-08-01T09:33:37;1.80;;;0.60;;
77222;SDS011;66218;48.928;9.140;2023-08-01T09:36:03;2.47;;;1.20;;
77222;SDS011;66218;48.928;9.140;2023-08-01T09:38:33;4.22;;;1.30;;
77222;SDS011;66218;48.928;9.140;2023-08-01T09:40:58;4.45;;;1.33;;
77222;SDS011;66218;48.928;9.140;2023-08-01T09:43:23;2.20;;;0.90;;
77222;SDS011;66218;48.928;9.140;2023-08-01T09:45:51;2.13;;;0.90;;
77222;SDS011;66218;48.928;9.140;2023-08-01T09:48:25;3.38;;;1.70;;
77222;SDS011;66218;48.928;9.140;2023-08-01T09:50:51;3.13;;;1.10;;
77222;SDS011;66218;48.928;9.140;2023-08-01T09:53:16;4.00;;;1.10;;
77222;SDS011;66218;48.928;9.140;2023-08-01T09:55:41;2.63;;;1.00;;
77222;SDS011;66218;48.928;9.140;2023-08-01T09:58:08;2.30;;;0.70;;
77222;SDS011;66218;48.928;9.140;2023-08-01T10:00:35;3.17;;;0.75;;
77222;SDS011;66218;48.928;9.140;2023-08-01T10:03:00;1.35;;;0.43;;
77222;SDS011;66218;48.928;9.140;2023-08-01T10:05:27;2.05;;;0.60;;
77222;SDS011;66218;48.928;9.140;2023-08-01T10:07:54;1.83;;;0.55;;
77222;SDS011;66218;48.928;9.140;2023-08-01T10:10:20;2.50;;;0.43;;
77222;SDS011;66218;48.928;9.140;2023-08-01T10:12:46;5.20;;;0.80;;
77222;SDS011;66218;48.928;9.140;2023-08-01T10:15:13;0.93;;;0.40;;
77222;SDS011;66218;48.928;9.140;2023-08-01T10:17:39;2.85;;;1.00;;
77222;SDS011;66218;48.928;9.140;2023-08-01T10:20:04;1.23;;;0.40;;
77222;SDS011;66218;48.928;9.140;2023-08-01T10:22:30;2.65;;;0.40;;
77222;SDS011;66218;48.928;9.140;2023-08-01T10:27:21;2.03;;;0.30;;
77222;SDS011;66218;48.928;9.140;2023-08-01T10:30:00;0.65;;;0.20;;
77222;SDS011;66218;48.928;9.140;2023-08-01T10:32:43;0.65;;;0.32;;
77222;SDS011;66218;48.928;9.140;2023-08-01T10:35:08;1.42;;;0.50;;
77222;SDS011;66218;48.928;9.140;2023-08-01T10:37:43;0.20;;;0.20;;
77222;SDS011;66218;48.928;9.140;2023-08-01T10:40:09;2.35;;;0.55;;
77222;SDS011;66218;48.928;9.140;2023-08-01T10:42:41;2.45;;;0.70;;
77222;SDS011;66218;48.928;9.140;2023-08-01T10:47:32;0.20;;;0.20;;
77222;SDS011;66218;48.928;9.140;2023-08-01T10:49:58;0.60;;;0.10;;
77222;SDS011;66218;48.928;9.140;2023-08-01T10:52:24;0.30;;;0.30;;
77222;SDS011;66218;48.928;9.140;2023-08-01T10:54:58;2.70;;;0.52;;
77222;SDS011;66218;48.928;9.140;2023-08-01T10:57:24;2.35;;;0.60;;
77222;SDS011;66218;48.928;9.140;2023-08-01T10:59:49;0.55;;;0.22;;
77222;SDS011;66218;48.928;9.140;2023-08-01T11:02:22;1.33;;;0.40;;
77222;SDS011;66218;48.928;9.140;2023-08-01T11:05:00;2.53;;;0.70;;
77222;SDS011;66218;48.928;9.140;2023-08-01T11:07:25;2.17;;;0.70;;
77222;SDS011;66218;48.928;9.140;2023-08-01T11:12:41;1.17;;;0.20;;
77222;SDS011;66218;48.928;9.140;2023-08-01T11:15:08;2.63;;;0.55;;
77222;SDS011;66218;48.928;9.140;2023-08-01T11:17:35;1.45;;;0.55;;
77222;SDS011;66218;48.928;9.140;2023-08-01T11:20:10;0.85;;;0.43;;
77222;SDS011;66218;48.928;9.140;2023-08-01T11:22:36;1.85;;;0.68;;
77222;SDS011;66218;48.928;9.140;2023-08-01T11:25:02;0.73;;;0.30;;
77222;SDS011;66218;48.928;9.140;2023-08-01T11:27:27;2.35;;;0.32;;
77222;SDS011;66218;48.928;9.140;2023-08-01T11:29:53;1.77;;;0.52;;
77222;SDS011;66218;48.928;9.140;2023-08-01T11:32:18;1.38;;;0.40;;
77222;SDS011;66218;48.928;9.140;2023-08-01T11:34:45;0.45;;;0.32;;
77222;SDS011;66218;48.928;9.140;2023-08-01T11:39:36;1.27;;;0.50;;
77222;SDS011;66218;48.928;9.140;2023-08-01T11:42:01;1.27;;;0.50;;
77222;SDS011;66218;48.928;9.140;2023-08-01T11:46:53;0.95;;;0.38;;
77222;SDS011;66218;48.928;9.140;2023-08-01T11:49:18;2.53;;;0.63;;
77222;SDS011;66218;48.928;9.140;2023-08-01T11:51:44;0.25;;;0.22;;
77222;SDS011;66218;48.928;9.140;2023-08-01T11:54:09;1.35;;;0.40;;
77222;SDS011;66218;48.928;9.140;2023-08-01T11:56:36;0.80;;;0.57;;
77222;SDS011;66218;48.928;9.140;2023-08-01T11:59:07;1.27;;;0.43;;
77222;SDS011;66218;48.928;9.140;2023-08-01T12:03:03;1.73;;;0.50;;
77222;SDS011;66218;48.928;9.140;2023-08-01T12:05:28;1.35;;;0.40;;
77222;SDS011;66218;48.928;9.140;2023-08-01T12:07:54;0.75;;;0.30;;
77222;SDS011;66218;48.928;9.140;2023-08-01T12:10:19;2.13;;;0.50;;
77222;SDS011;66218;48.928;9.140;2023-08-01T12:12:45;2.03;;;0.70;;
77222;SDS011;66218;48.928;9.140;2023-08-01T12:15:12;0.50;;;0.20;;
77222;SDS011;66218;48.928;9.140;2023-08-01T12:17:37;1.48;;;0.30;;
77222;SDS011;66218;48.928;9.140;2023-08-01T12:20:02;2.70;;;0.40;;
77222;SDS011;66218;48.928;9.140;2023-08-01T12:22:28;1.98;;;0.40;;
77222;SDS011;66218;48.928;9.140;2023-08-01T12:24:53;1.33;;;0.50;;
77222;SDS011;66218;48.928;9.140;2023-08-01T12:27:18;1.40;;;0.47;;
77222;SDS011;66218;48.928;9.140;2023-08-01T12:29:43;0.90;;;0.17;;
77222;SDS011;66218;48.928;9.140;2023-08-01T12:32:09;1.35;;;0.30;;
77222;SDS011;66218;48.928;9.140;2023-08-01T12:34:34;2.27;;;0.60;;
77222;SDS011;66218;48.928;9.140;2023-08-01T12:36:59;0.80;;;0.40;;
77222;SDS011;66218;48.928;9.140;2023-08-01T12:39:24;2.57;;;0.33;;
77222;SDS011;66218;48.928;9.140;2023-08-01T12:44:16;0.60;;;0.40;;
77222;SDS011;66218;48.928;9.140;2023-08-01T12:46:42;1.50;;;0.63;;
77222;SDS011;66218;48.928;9.140;2023-08-01T12:49:08;1.13;;;0.55;;
77222;SDS011;66218;48.928;9.140;2023-08-01T12:51:33;1.25;;;0.30;;
77222;SDS011;66218;48.928;9.140;2023-08-01T12:53:58;0.93;;;0.50;;
77222;SDS011;66218;48.928;9.140;2023-08-01T12:56:24;0.68;;;0.40;;
77222;SDS011;66218;48.928;9.140;2023-08-01T12:58:49;0.93;;;0.43;;
77222;SDS011;66218;48.928;9.140;2023-08-01T13:01:14;2.10;;;1.10;;
77222;SDS011;66218;48.928;9.140;2023-08-01T13:03:39;0.43;;;0.30;;
77222;SDS011;66218;48.928;9.140;2023-08-01T13:06:04;0.30;;;0.27;;
77222;SDS011;66218;48.928;9.140;2023-08-01T13:08:30;1.20;;;0.60;;
77222;SDS011;66218;48.928;9.140;2023-08-01T13:10:55;0.77;;;0.40;;
77222;SDS011;66218;48.928;9.140;2023-08-01T13:13:20;0.70;;;0.43;;
77222;SDS011;66218;48.928;9.140;2023-08-01T13:15:45;1.40;;;0.40;;
77222;SDS011;66218;48.928;9.140;2023-08-01T13:18:10;2.23;;;0.67;;
77222;SDS011;66218;48.928;9.140;2023-08-01T13:20:36;1.10;;;0.40;;
77222;SDS011;66218;48.928;9.140;2023-08-01T13:23:01;2.53;;;0.40;;
77222;SDS011;66218;48.928;9.140;2023-08-01T13:25:27;2.85;;;0.57;;
77222;SDS011;66218;48.928;9.140;2023-08-01T13:27:52;2.17;;;0.60;;
77222;SDS011;66218;48.928;9.140;2023-08-01T13:32:43;2.35;;;0.57;;
77222;SDS011;66218;48.928;9.140;2023-08-01T13:35:10;0.38;;;0.28;;
77222;SDS011;66218;48.928;9.140;2023-08-01T13:37:35;1.60;;;0.60;;
77222;SDS011;66218;48.928;9.140;2023-08-01T13:40:00;0.70;;;0.50;;
77222;SDS011;66218;48.928;9.140;2023-08-01T13:42:25;0.93;;;0.27;;
77222;SDS011;66218;48.928;9.140;2023-08-01T13:47:16;0.67;;;0.40;;
77222;SDS011;66218;48.928;9.140;2023-08-01T13:49:41;1.70;;;0.60;;
77222;SDS011;66218;48.928;9.140;2023-08-01T13:56:57;1.30;;;0.40;;
77222;SDS011;66218;48.928;9.140;2023-08-01T14:01:47;3.27;;;0.53;;
77222;SDS011;66218;48.928;9.140;2023-08-01T14:04:13;1.70;;;0.50;;
77222;SDS011;66218;48.928;9.140;2023-08-01T14:09:03;1.48;;;0.40;;
77222;SDS011;66218;48.928;9.140;2023-08-01T14:13:54;2.47;;;0.52;;
77222;SDS011;66218;48.928;9.140;2023-08-01T14:16:19;0.80;;;0.40;;
77222;SDS011;66218;48.928;9.140;2023-08-01T14:18:44;1.73;;;0.50;;
77222;SDS011;66218;48.928;9.140;2023-08-01T14:21:09;2.67;;;0.60;;
77222;SDS011;66218;48.928;9.140;2023-08-01T14:23:34;1.63;;;0.67;;
77222;SDS011;66218;48.928;9.140;2023-08-01T14:26:01;2.00;;;0.40;;
77222;SDS011;66218;48.928;9.140;2023-08-01T14:30:52;1.45;;;0.43;;
77222;SDS011;66218;48.928;9.140;2023-08-01T14:35:42;2.33;;;0.40;;
77222;SDS011;66218;48.928;9.140;2023-08-01T14:38:07;2.40;;;0.53;;
77222;SDS011;66218;48.928;9.140;2023-08-01T14:43:00;0.57;;;0.30;;
77222;SDS011;66218;48.928;9.140;2023-08-01T14:47:51;1.90;;;0.70;;
77222;SDS011;66218;48.928;9.140;2023-08-01T14:52:41;2.20;;;0.63;;
77222;SDS011;66218;48.928;9.140;2023-08-01T14:57:32;1.15;;;0.50;;
77222;SDS011;66218;48.928;9.140;2023-08-01T15:02:22;1.48;;;0.32;;
77222;SDS011;66218;48.928;9.140;2023-08-01T15:04:51;1.50;;;0.60;;
77222;SDS011;66218;48.928;9.140;2023-08-01T15:07:17;1.40;;;0.43;;
77222;SDS011;66218;48.928;9.140;2023-08-01T15:12:08;2.05;;;0.57;;
77222;SDS011;66218;48.928;9.140;2023-08-01T15:16:58;1.98;;;0.70;;
77222;SDS011;66218;48.928;9.140;2023-08-01T15:21:49;1.05;;;0.55;;
77222;SDS011;66218;48.928;9.140;2023-08-01T15:26:39;2.22;;;0.50;;
77222;SDS011;66218;48.928;9.140;2023-08-01T15:31:29;0.20;;;0.20;;
77222;SDS011;66218;48.928;9.140;2023-08-01T15:36:25;1.17;;;0.47;;
77222;SDS011;66218;48.928;9.140;2023-08-01T15:38:50;1.83;;;0.60;;
77222;SDS011;66218;48.928;9.140;2023-08-01T15:43:41;0.73;;;0.38;;
77222;SDS011;66218;48.928;9.140;2023-08-01T15:48:32;1.75;;;0.82;;
77222;SDS011;66218;48.928;9.140;2023-08-01T15:53:22;0.30;;;0.20;;
77222;SDS011;66218;48.928;9.140;2023-08-01T15:55:54;1.00;;;0.43;;